Time;durP1;ratioP1;P1;durP2;ratioP2;P2;SDS_P1;SDS_P2;PMS_P1;PMS_P2;Temp;Humidity;BMP_temperature;BMP_pressure;BME280_temperature;BME280_humidity;BME280_pressure;Samples;Min_cycle;Max_cycle;Signal;HPM_P1;HPM_P2
2022/03/01 00:01:54;;;;;;;6.13;4.50;;;1.90;99.90;;;;;;4848298;29;20438;-81
2022/03/01 00:04:38;;;;;;;8.30;5.03;;;1.90;99.90;;;;;;4847894;29;20600;-82
2022/03/01 00:07:23;;;;;;;9.60;5.83;;;1.80;99.90;;;;;;4847964;29;20460;-82
2022/03/01 00:10:08;;;;;;;8.10;4.33;;;1.90;99.90;;;;;;4848403;29;20478;-81
2022/03/01 00:12:52;;;;;;;4.60;4.23;;;2.00;99.90;;;;;;4847913;29;20456;-81
2022/03/01 00:15:37;;;;;;;7.13;4.80;;;1.90;99.90;;;;;;4848471;29;20437;-81
2022/03/01 00:18:22;;;;;;;7.27;4.50;;;1.90;99.90;;;;;;4848334;29;20552;-81
2022/03/01 00:21:06;;;;;;;5.87;4.63;;;1.90;99.90;;;;;;4848991;29;20755;-81
2022/03/01 00:23:51;;;;;;;4.60;4.07;;;1.90;99.90;;;;;;4861109;29;20391;-81
2022/03/01 00:26:35;;;;;;;8.43;4.60;;;1.90;99.90;;;;;;4848808;29;20405;-82
2022/03/01 00:29:20;;;;;;;12.17;5.07;;;1.90;99.90;;;;;;4849614;29;20811;-81
2022/03/01 00:32:05;;;;;;;8.53;4.70;;;1.80;99.90;;;;;;4849422;29;20378;-81
2022/03/01 00:34:49;;;;;;;5.87;4.63;;;1.60;99.90;;;;;;4862755;29;20392;-82
2022/03/01 00:37:34;;;;;;;5.53;3.90;;;1.60;99.90;;;;;;4850262;29;20451;-82
2022/03/01 00:40:19;;;;;;;12.27;5.30;;;1.70;99.90;;;;;;4861607;29;20431;-81
2022/03/01 00:43:04;;;;;;;10.63;7.33;;;1.70;99.90;;;;;;4867080;29;20403;-79
2022/03/01 00:45:49;;;;;;;6.57;4.63;;;1.60;99.90;;;;;;4884308;29;20420;-80
2022/03/01 00:48:34;;;;;;;7.47;5.07;;;1.70;99.90;;;;;;4884214;29;20471;-81
2022/03/01 00:51:19;;;;;;;6.60;4.53;;;1.70;99.90;;;;;;4883844;29;20411;-80
2022/03/01 00:54:04;;;;;;;6.37;4.00;;;1.60;99.90;;;;;;4883434;29;20399;-81
2022/03/01 00:56:48;;;;;;;9.20;5.67;;;1.70;99.90;;;;;;4865478;29;20459;-82
2022/03/01 00:59:33;;;;;;;11.97;5.47;;;1.60;99.90;;;;;;4865186;29;20541;-81
2022/03/01 01:02:17;;;;;;;10.57;4.57;;;1.70;99.90;;;;;;4865727;29;20395;-81
2022/03/01 01:05:02;;;;;;;6.80;3.70;;;1.60;99.90;;;;;;4865657;29;20458;-81
2022/03/01 01:07:47;;;;;;;5.23;3.80;;;1.60;99.90;;;;;;4864807;29;20770;-81
2022/03/01 01:10:31;;;;;;;4.90;4.37;;;1.60;99.90;;;;;;4852187;29;20463;-82
2022/03/01 01:13:16;;;;;;;4.20;3.67;;;1.60;99.90;;;;;;4865301;29;20821;-81
2022/03/01 01:16:00;;;;;;;10.27;5.00;;;1.60;99.90;;;;;;4861617;29;20993;-82
2022/03/01 01:18:45;;;;;;;8.70;5.90;;;1.60;99.90;;;;;;4850035;29;20516;-82
2022/03/01 01:22:39;;;;;;;8.67;4.13;;;1.60;99.90;;;;;;4851219;29;20400;-81
2022/03/01 01:24:33;;;;;;;9.63;4.67;;;1.60;99.90;;;;;;4860675;29;20422;-81
2022/03/01 01:27:18;;;;;;;6.53;4.07;;;1.50;99.90;;;;;;4866534;29;20430;-80
2022/03/01 01:30:04;;;;;;;7.67;3.63;;;1.50;99.90;;;;;;4869294;29;20388;-80
2022/03/01 01:32:49;;;;;;;11.90;5.07;;;1.50;99.90;;;;;;4869881;29;20418;-81
2022/03/01 01:35:35;;;;;;;11.10;4.70;;;1.60;99.90;;;;;;4870323;29;20528;-81
2022/03/01 01:38:19;;;;;;;6.30;4.87;;;1.60;99.90;;;;;;4870209;29;20590;-79
2022/03/01 01:41:04;;;;;;;6.53;4.20;;;1.60;99.90;;;;;;4882098;29;20433;-80
2022/03/01 01:43:49;;;;;;;5.77;4.37;;;1.50;99.90;;;;;;4869417;29;20403;-81
2022/03/01 01:46:34;;;;;;;8.50;4.00;;;1.60;99.90;;;;;;4856048;29;20477;-81
2022/03/01 01:49:18;;;;;;;13.73;5.60;;;1.70;99.90;;;;;;4850773;29;20542;-81
2022/03/01 01:52:03;;;;;;;7.00;4.17;;;2.10;99.90;;;;;;4850915;29;20400;-81
2022/03/01 01:54:48;;;;;;;11.63;6.70;;;2.30;99.90;;;;;;4850771;29;20503;-80
2022/03/01 01:57:32;;;;;;;7.93;5.43;;;2.60;99.90;;;;;;4849233;29;20479;-81
2022/03/01 02:00:18;;;;;;;8.10;4.80;;;2.60;99.90;;;;;;4849883;29;20400;-81
2022/03/01 02:03:02;;;;;;;11.70;5.83;;;2.70;99.90;;;;;;4849939;29;20475;-81
2022/03/01 02:05:46;;;;;;;7.67;4.77;;;2.60;99.90;;;;;;4850102;29;20399;-81
2022/03/01 02:08:33;;;;;;;7.10;3.83;;;2.60;99.90;;;;;;4850112;29;20427;-80
2022/03/01 02:11:17;;;;;;;8.40;6.00;;;2.50;99.90;;;;;;4859606;29;20407;-79
2022/03/01 02:14:03;;;;;;;8.60;7.00;;;2.60;99.90;;;;;;4862774;29;20943;-81
2022/03/01 02:16:48;;;;;;;12.00;7.75;;;2.60;99.90;;;;;;4848935;29;20428;-81
2022/03/01 02:19:32;;;;;;;12.43;7.57;;;2.60;99.90;;;;;;4849559;29;20235;-81
2022/03/01 02:22:18;;;;;;;10.13;6.10;;;2.70;99.90;;;;;;4850193;29;20399;-81
2022/03/01 02:25:03;;;;;;;11.17;4.73;;;2.60;99.90;;;;;;4851322;29;20388;-81
2022/03/01 02:27:48;;;;;;;8.10;5.70;;;2.50;99.90;;;;;;4851286;29;20399;-82
2022/03/01 02:30:33;;;;;;;11.90;7.83;;;2.40;99.90;;;;;;4855062;29;20384;-81
2022/03/01 02:33:18;;;;;;;12.93;5.90;;;2.30;99.90;;;;;;4861400;29;20396;-81
2022/03/01 02:36:04;;;;;;;6.83;5.10;;;2.40;99.90;;;;;;4849831;29;20387;-81
2022/03/01 02:38:48;;;;;;;6.77;6.07;;;2.40;99.90;;;;;;4861440;29;20476;-81
2022/03/01 02:41:37;;;;;;;10.57;6.03;;;2.50;99.90;;;;;;4850324;29;20392;-81
2022/03/01 02:44:22;;;;;;;8.93;4.67;;;2.60;99.90;;;;;;4865038;29;20440;-79
2022/03/01 02:47:10;;;;;;;19.03;5.30;;;2.50;99.90;;;;;;4865101;29;20460;-79
2022/03/01 02:49:55;;;;;;;12.13;5.17;;;2.30;99.90;;;;;;4864980;29;20744;-79
2022/03/01 02:52:40;;;;;;;8.40;5.40;;;2.20;99.90;;;;;;4856318;29;20476;-81
2022/03/01 02:55:25;;;;;;;8.67;4.60;;;2.20;99.90;;;;;;4849717;29;20434;-80
2022/03/01 02:58:10;;;;;;;12.27;5.87;;;1.20;99.90;;;;;;4849992;29;20473;-81
2022/03/01 03:00:54;;;;;;;8.47;5.90;;;0.90;99.90;;;;;;4848820;29;20506;-81
2022/03/01 03:03:39;;;;;;;5.73;4.60;;;0.90;99.90;;;;;;4848222;29;20802;-81
2022/03/01 03:06:24;;;;;;;7.20;5.60;;;0.90;99.90;;;;;;4848748;29;20399;-81
2022/03/01 03:09:09;;;;;;;10.40;4.70;;;0.90;99.90;;;;;;4848946;29;20520;-81
2022/03/01 03:11:54;;;;;;;9.10;6.50;;;1.10;99.90;;;;;;4848400;29;20411;-81
2022/03/01 03:14:39;;;;;;;6.73;5.30;;;1.30;99.90;;;;;;4848557;29;20862;-81
2022/03/01 03:17:24;;;;;;;8.77;6.10;;;1.50;99.90;;;;;;4848693;29;20758;-81
2022/03/01 03:20:09;;;;;;;5.20;3.70;;;1.80;99.90;;;;;;4865202;29;20757;-81
2022/03/01 03:22:54;;;;;;;9.63;4.87;;;2.00;99.90;;;;;;4880528;29;20427;-80
2022/03/01 03:25:39;;;;;;;6.73;5.53;;;2.10;99.90;;;;;;4854631;29;20486;-81
2022/03/01 03:28:24;;;;;;;5.50;4.93;;;2.10;99.90;;;;;;4852997;29;20494;-81
2022/03/01 03:31:09;;;;;;;10.83;5.20;;;2.00;99.90;;;;;;4853718;29;20399;-81
2022/03/01 03:33:53;;;;;;;7.60;5.70;;;2.10;99.90;;;;;;4855040;29;20400;-81
2022/03/01 03:36:41;;;;;;;7.17;5.47;;;2.00;99.90;;;;;;4860759;29;20388;-81
2022/03/01 03:39:25;;;;;;;13.30;6.33;;;2.00;99.90;;;;;;4848038;29;20574;-81
2022/03/01 03:42:10;;;;;;;13.80;6.63;;;1.90;99.90;;;;;;4860462;29;20462;-81
2022/03/01 03:44:54;;;;;;;6.63;5.07;;;1.60;99.90;;;;;;4860589;29;20392;-81
2022/03/01 03:47:40;;;;;;;9.33;5.97;;;1.50;99.90;;;;;;4848563;29;20427;-81
2022/03/01 03:50:24;;;;;;;6.50;5.70;;;1.50;99.90;;;;;;4859962;29;20462;-81
2022/03/01 03:53:10;;;;;;;5.20;4.73;;;1.20;99.90;;;;;;4859570;29;20389;-81
2022/03/01 03:55:54;;;;;;;14.00;6.50;;;1.40;99.90;;;;;;4847699;29;20431;-81
2022/03/01 03:58:39;;;;;;;15.97;6.30;;;1.60;99.90;;;;;;4847556;29;20493;-81
2022/03/01 04:01:23;;;;;;;11.53;4.37;;;1.60;99.90;;;;;;4847870;29;20391;-81
2022/03/01 04:04:08;;;;;;;10.23;5.47;;;1.70;99.90;;;;;;4847830;29;20441;-81
2022/03/01 04:06:52;;;;;;;9.63;5.60;;;1.60;99.90;;;;;;4847914;29;20399;-81
2022/03/01 04:09:37;;;;;;;17.80;6.87;;;1.70;99.90;;;;;;4848444;29;20400;-80
2022/03/01 04:12:22;;;;;;;6.90;5.17;;;1.50;99.90;;;;;;4859765;29;20403;-80
2022/03/01 04:15:08;;;;;;;13.97;5.90;;;1.60;99.90;;;;;;4847593;29;20459;-80
2022/03/01 04:17:53;;;;;;;8.80;5.60;;;1.60;99.90;;;;;;4847540;29;20455;-81
2022/03/01 04:20:37;;;;;;;10.73;5.67;;;1.60;99.90;;;;;;4847560;29;20375;-81
2022/03/01 04:23:22;;;;;;;12.53;4.57;;;1.60;99.90;;;;;;4847608;29;20503;-80
2022/03/01 04:26:07;;;;;;;9.00;5.50;;;1.60;99.90;;;;;;4847509;29;20772;-80
2022/03/01 04:28:52;;;;;;;8.57;4.40;;;1.70;99.90;;;;;;4847289;29;20404;-80
2022/03/01 04:31:40;;;;;;;11.57;6.93;;;1.80;99.90;;;;;;4848066;29;20400;-80
2022/03/01 04:34:25;;;;;;;12.50;5.20;;;1.80;99.90;;;;;;4847841;29;20444;-80
2022/03/01 04:37:10;;;;;;;10.27;5.73;;;1.80;99.90;;;;;;4847372;29;20423;-81
2022/03/01 04:39:55;;;;;;;7.27;5.00;;;1.70;99.90;;;;;;4847129;29;20727;-81
2022/03/01 04:42:41;;;;;;;6.87;5.80;;;1.80;99.90;;;;;;4847608;29;20962;-81
2022/03/01 04:45:25;;;;;;;6.57;5.43;;;1.70;99.90;;;;;;4848280;29;20388;-81
2022/03/01 04:48:10;;;;;;;6.23;4.87;;;1.40;99.90;;;;;;4865423;29;20402;-81
2022/03/01 04:50:54;;;;;;;8.10;5.10;;;1.30;99.90;;;;;;4865392;29;20389;-81
2022/03/01 04:53:39;;;;;;;5.10;4.70;;;0.80;99.90;;;;;;4878131;29;20395;-81
2022/03/01 04:56:24;;;;;;;9.60;5.90;;;0.90;99.90;;;;;;4865239;29;20464;-81
2022/03/01 04:59:09;;;;;;;5.67;4.60;;;0.70;99.90;;;;;;4865262;29;20458;-81
2022/03/01 05:01:54;;;;;;;8.27;5.27;;;0.60;99.90;;;;;;4866143;29;20433;-79
2022/03/01 05:04:38;;;;;;;7.10;6.00;;;0.10;99.90;;;;;;4866018;29;20395;-82
2022/03/01 05:07:23;;;;;;;11.23;5.07;;;0.20;99.90;;;;;;4864676;29;20390;-80
2022/03/01 05:10:09;;;;;;;5.53;4.90;;;0.50;99.90;;;;;;4869233;29;20381;-78
2022/03/01 05:12:56;;;;;;;7.60;4.90;;;0.80;99.90;;;;;;4892526;29;20474;-79
2022/03/01 05:15:41;;;;;;;13.80;5.70;;;1.00;99.90;;;;;;4866977;29;20403;-81
2022/03/01 05:18:26;;;;;;;7.53;6.27;;;1.10;99.90;;;;;;4865798;29;20474;-81
2022/03/01 05:21:10;;;;;;;9.23;5.37;;;1.20;99.90;;;;;;4851397;29;20437;-80
2022/03/01 05:23:55;;;;;;;10.93;6.40;;;1.20;99.90;;;;;;4866294;29;20413;-81
2022/03/01 05:26:39;;;;;;;17.87;7.23;;;1.10;99.90;;;;;;4877521;29;20452;-81
2022/03/01 05:29:24;;;;;;;9.40;6.80;;;0.60;99.90;;;;;;4866022;29;20564;-80
2022/03/01 05:32:09;;;;;;;7.20;6.50;;;0.80;99.90;;;;;;4877601;29;20401;-81
2022/03/01 05:34:54;;;;;;;11.53;6.83;;;0.50;99.90;;;;;;4865891;29;20451;-81
2022/03/01 05:37:38;;;;;;;11.33;4.67;;;0.20;99.90;;;;;;4864847;29;20462;-81
2022/03/01 05:40:26;;;;;;;7.30;5.27;;;0.30;99.90;;;;;;4864988;29;20395;-81
2022/03/01 05:43:10;;;;;;;10.90;4.97;;;0.00;99.90;;;;;;4877078;29;20460;-80
2022/03/01 05:45:55;;;;;;;7.60;4.67;;;-0.10;99.90;;;;;;4865558;29;20758;-81
2022/03/01 05:48:39;;;;;;;4.90;4.20;;;-0.30;99.90;;;;;;4878408;29;20483;-80
2022/03/01 05:51:24;;;;;;;8.63;3.60;;;-0.30;99.90;;;;;;4866707;29;20462;-81
2022/03/01 05:54:08;;;;;;;9.10;5.10;;;-0.40;99.90;;;;;;4865699;29;20403;-81
2022/03/01 05:56:53;;;;;;;4.60;4.20;;;-0.40;99.90;;;;;;4865291;29;20568;-81
2022/03/01 05:59:37;;;;;;;4.53;3.97;;;-0.30;99.90;;;;;;4865564;29;20452;-81
2022/03/01 06:02:22;;;;;;;6.30;5.13;;;-0.40;99.90;;;;;;4864973;29;20436;-81
2022/03/01 06:05:08;;;;;;;4.87;4.37;;;-0.40;99.90;;;;;;4865117;29;20383;-80
2022/03/01 06:07:53;;;;;;;8.80;3.90;;;-0.20;99.90;;;;;;4877454;29;20391;-81
2022/03/01 06:10:37;;;;;;;6.00;5.47;;;-0.20;99.90;;;;;;4877035;29;20411;-82
2022/03/01 06:13:22;;;;;;;6.37;5.13;;;-0.30;99.90;;;;;;4864468;29;20452;-80
2022/03/01 06:16:07;;;;;;;4.57;3.80;;;-0.50;99.90;;;;;;4866969;29;20378;-81
2022/03/01 06:18:51;;;;;;;5.87;3.60;;;-0.60;99.90;;;;;;4868433;29;20457;-81
2022/03/01 06:21:36;;;;;;;6.70;3.90;;;-0.70;99.90;;;;;;4868318;29;20403;-79
2022/03/01 06:24:20;;;;;;;8.17;5.87;;;-0.80;99.90;;;;;;4869318;29;20719;-81
2022/03/01 06:27:05;;;;;;;6.97;5.63;;;-0.90;99.90;;;;;;4873339;29;20464;-81
2022/03/01 06:29:50;;;;;;;6.80;4.07;;;-1.10;99.90;;;;;;4874035;29;20895;-80
2022/03/01 06:32:35;;;;;;;7.50;3.73;;;-0.90;99.90;;;;;;4874419;29;20395;-81
2022/03/01 06:35:19;;;;;;;8.20;4.50;;;-0.70;99.90;;;;;;4876680;29;20406;-80
2022/03/01 06:38:04;;;;;;;4.73;3.90;;;-0.70;99.90;;;;;;4878376;29;20450;-80
2022/03/01 06:40:51;;;;;;;21.23;4.97;;;-0.50;99.90;;;;;;4875160;29;20891;-82
2022/03/01 06:43:36;;;;;;;7.30;4.67;;;-0.40;99.90;;;;;;4856160;29;20544;-81
2022/03/01 06:46:21;;;;;;;10.33;4.90;;;-0.20;99.90;;;;;;4870124;29;20415;-82
2022/03/01 06:49:06;;;;;;;5.37;4.87;;;0.00;99.90;;;;;;4868457;29;20439;-82
2022/03/01 06:51:50;;;;;;;4.10;3.80;;;0.00;99.90;;;;;;4871537;29;20411;-80
2022/03/01 06:54:35;;;;;;;7.13;4.20;;;0.10;99.90;;;;;;4878915;29;20471;-81
2022/03/01 06:57:20;;;;;;;3.90;3.60;;;0.20;99.90;;;;;;4870688;29;20462;-81
2022/03/01 07:00:06;;;;;;;7.03;5.23;;;0.20;99.90;;;;;;4875326;29;20417;-81
2022/03/01 07:02:51;;;;;;;5.67;4.10;;;0.20;99.90;;;;;;4873608;29;20526;-82
2022/03/01 07:05:35;;;;;;;6.03;4.43;;;0.40;99.90;;;;;;4854956;29;20430;-81
2022/03/01 07:08:20;;;;;;;8.93;4.77;;;0.60;99.90;;;;;;4874712;29;20457;-81
2022/03/01 07:11:04;;;;;;;6.63;3.90;;;0.80;99.90;;;;;;4884493;29;20452;-81
2022/03/01 07:13:50;;;;;;;5.53;4.13;;;1.10;99.90;;;;;;4877786;29;20524;-81
2022/03/01 07:16:34;;;;;;;4.60;4.17;;;0.80;99.90;;;;;;4874526;29;20474;-81
2022/03/01 07:19:19;;;;;;;6.23;4.47;;;0.80;99.90;;;;;;4873644;29;20483;-80
2022/03/01 07:22:04;;;;;;;7.63;5.20;;;1.20;99.90;;;;;;4872585;29;20511;-83
2022/03/01 07:24:48;;;;;;;5.63;4.80;;;1.40;99.90;;;;;;4874920;29;20446;-81
2022/03/01 07:27:33;;;;;;;8.67;5.10;;;1.30;99.90;;;;;;4877425;29;20437;-81
2022/03/01 07:30:19;;;;;;;4.93;3.50;;;1.40;99.90;;;;;;4881114;29;20440;-80
2022/03/01 07:33:04;;;;;;;5.03;3.83;;;1.30;99.90;;;;;;4885399;29;20426;-82
2022/03/01 07:35:48;;;;;;;10.20;3.90;;;1.10;99.90;;;;;;4871018;29;20838;-81
2022/03/01 07:38:33;;;;;;;11.80;5.30;;;0.90;99.90;;;;;;4873711;29;20457;-80
2022/03/01 07:41:18;;;;;;;6.23;5.17;;;0.90;99.90;;;;;;4877846;29;20418;-80
2022/03/01 07:44:02;;;;;;;4.53;4.13;;;1.10;99.90;;;;;;4866403;29;20403;-79
2022/03/01 07:46:47;;;;;;;7.13;5.20;;;1.10;99.90;;;;;;4853775;29;20486;-81
2022/03/01 07:49:32;;;;;;;7.00;3.50;;;1.10;99.90;;;;;;4860569;29;20556;-80
2022/03/01 07:52:16;;;;;;;5.93;3.90;;;1.20;99.90;;;;;;4849422;29;20471;-80
2022/03/01 07:55:01;;;;;;;3.57;3.27;;;1.10;99.90;;;;;;4865627;29;20844;-80
2022/03/01 07:57:46;;;;;;;7.57;4.10;;;1.40;99.90;;;;;;4866740;29;20921;-80
2022/03/01 08:00:30;;;;;;;6.40;4.77;;;1.40;99.90;;;;;;4853496;29;20507;-81
2022/03/01 08:03:15;;;;;;;5.10;3.87;;;1.70;99.90;;;;;;4865364;29;20484;-79
2022/03/01 08:05:59;;;;;;;7.60;4.70;;;1.90;99.90;;;;;;4873949;29;20512;-81
2022/03/01 08:08:44;;;;;;;5.13;4.23;;;2.20;99.90;;;;;;4878911;29;20415;-80
2022/03/01 08:11:29;;;;;;;8.00;3.90;;;2.20;99.90;;;;;;4878742;29;20385;-80
2022/03/01 08:14:13;;;;;;;8.10;4.10;;;2.20;99.90;;;;;;4848147;29;20422;-80
2022/03/01 08:16:58;;;;;;;3.63;3.30;;;2.10;99.90;;;;;;4861840;29;20551;-80
2022/03/01 08:19:43;;;;;;;6.50;5.17;;;2.10;99.90;;;;;;4862457;29;20436;-80
2022/03/01 08:22:27;;;;;;;4.23;3.60;;;2.50;99.90;;;;;;4859798;29;20779;-80
2022/03/01 08:25:13;;;;;;;5.67;4.17;;;2.40;99.90;;;;;;4873667;29;20415;-80
2022/03/01 08:27:59;;;;;;;6.57;5.07;;;2.50;99.90;;;;;;4863932;29;20513;-80
2022/03/01 08:30:44;;;;;;;7.47;4.90;;;2.50;99.90;;;;;;4862484;29;20486;-81
2022/03/01 08:33:29;;;;;;;5.30;3.83;;;2.70;99.90;;;;;;4869347;29;20505;-78
2022/03/01 08:36:14;;;;;;;7.97;5.70;;;2.80;99.90;;;;;;4864993;29;20439;-80
2022/03/01 08:38:59;;;;;;;9.13;4.47;;;3.30;99.90;;;;;;4869690;29;20970;-80
2022/03/01 08:41:43;;;;;;;6.07;3.90;;;3.70;99.90;;;;;;4863379;29;20438;-79
2022/03/01 08:44:27;;;;;;;4.23;3.83;;;4.30;99.90;;;;;;4873271;29;20410;-80
2022/03/01 08:47:12;;;;;;;4.47;3.17;;;3.80;99.90;;;;;;4861106;29;20476;-79
2022/03/01 08:49:57;;;;;;;7.23;4.57;;;3.80;99.90;;;;;;4844211;29;20431;-79
2022/03/01 08:52:41;;;;;;;6.83;3.93;;;4.10;99.90;;;;;;4851274;29;20447;-81
2022/03/01 08:55:26;;;;;;;6.50;4.20;;;4.20;99.90;;;;;;4842179;29;20594;-80
2022/03/01 08:58:12;;;;;;;8.87;3.57;;;4.60;99.10;;;;;;4847650;29;20463;-80
2022/03/01 09:00:56;;;;;;;14.23;4.80;;;4.70;97.90;;;;;;4847880;29;20445;-79
2022/03/01 09:03:41;;;;;;;4.03;3.40;;;5.80;97.00;;;;;;4842937;29;20419;-79
2022/03/01 09:06:27;;;;;;;5.73;3.97;;;5.20;94.10;;;;;;4830090;29;20418;-80
2022/03/01 09:09:11;;;;;;;5.43;3.90;;;5.90;94.70;;;;;;4855713;29;20953;-81
2022/03/01 09:11:56;;;;;;;7.40;3.30;;;5.50;92.30;;;;;;4831552;29;20461;-80
2022/03/01 09:14:40;;;;;;;7.43;3.60;;;5.70;89.20;;;;;;4845995;29;20419;-81
2022/03/01 09:17:25;;;;;;;4.73;3.70;;;6.50;90.90;;;;;;4848597;29;20416;-80
2022/03/01 09:20:11;;;;;;;6.83;4.60;;;6.20;85.00;;;;;;4845163;29;21016;-80
2022/03/01 09:22:57;;;;;;;5.27;4.10;;;7.00;85.80;;;;;;4862684;29;20434;-80
2022/03/01 09:25:42;;;;;;;3.20;3.00;;;7.40;84.60;;;;;;4860950;29;20475;-81
2022/03/01 09:28:26;;;;;;;6.77;4.47;;;6.90;78.50;;;;;;4862436;29;20877;-81
2022/03/01 09:31:11;;;;;;;3.80;3.40;;;7.10;80.80;;;;;;4865459;29;20434;-81
2022/03/01 09:33:56;;;;;;;9.63;5.30;;;8.10;78.30;;;;;;4875974;29;20846;-80
2022/03/01 09:36:41;;;;;;;6.60;3.90;;;8.10;73.80;;;;;;4878952;29;20422;-81
2022/03/01 09:39:25;;;;;;;6.60;4.00;;;7.60;71.80;;;;;;4867524;29;20862;-78
2022/03/01 09:42:10;;;;;;;4.83;4.23;;;7.80;73.40;;;;;;4866490;29;20464;-82
2022/03/01 09:44:55;;;;;;;5.00;3.40;;;7.60;73.50;;;;;;4862887;29;20430;-82
2022/03/01 09:47:40;;;;;;;5.67;3.80;;;8.20;72.10;;;;;;4863812;29;20419;-82
2022/03/01 09:50:28;;;;;;;4.83;3.60;;;7.10;69.80;;;;;;4863190;29;20462;-83
2022/03/01 09:53:13;;;;;;;8.73;4.40;;;8.40;71.30;;;;;;4876708;29;20506;-82
2022/03/01 09:56:02;;;;;;;5.27;3.80;;;9.00;66.40;;;;;;4857623;29;20499;-79
2022/03/01 09:58:49;;;;;;;5.33;3.80;;;8.80;67.50;;;;;;4879116;29;20477;-80
2022/03/01 10:01:33;;;;;;;5.70;5.03;;;9.20;65.80;;;;;;4879619;29;20411;-79
2022/03/01 10:04:18;;;;;;;3.40;3.10;;;11.20;67.20;;;;;;4861875;29;20457;-80
2022/03/01 10:07:09;;;;;;;4.93;4.43;;;10.50;58.90;;;;;;4858498;29;20511;-79
2022/03/01 10:09:56;;;;;;;4.47;3.60;;;11.40;60.80;;;;;;4865008;29;20495;-81
2022/03/01 10:12:41;;;;;;;3.60;3.20;;;10.60;59.70;;;;;;4850479;29;20432;-80
2022/03/01 10:15:28;;;;;;;9.90;6.20;;;11.50;59.30;;;;;;4868914;29;20500;-80
2022/03/01 10:18:15;;;;;;;6.80;5.57;;;11.10;58.50;;;;;;4852891;29;20521;-80
2022/03/01 10:21:09;;;;;;;3.80;3.50;;;9.00;62.20;;;;;;4850392;29;20425;-81
2022/03/01 10:23:56;;;;;;;4.50;4.10;;;9.50;61.70;;;;;;4867468;29;20555;-81
2022/03/01 10:26:43;;;;;;;3.30;2.90;;;8.90;60.90;;;;;;4867379;29;20850;-81
2022/03/01 10:29:29;;;;;;;7.70;4.20;;;8.00;59.80;;;;;;4860593;29;20474;-81
2022/03/01 10:32:15;;;;;;;6.83;4.03;;;8.70;62.30;;;;;;4867246;29;20907;-80
2022/03/01 10:35:07;;;;;;;5.83;4.30;;;8.10;63.20;;;;;;4864239;29;20514;-80
2022/03/01 10:37:52;;;;;;;5.13;4.63;;;8.00;61.50;;;;;;4853355;29;20803;-81
2022/03/01 10:40:38;;;;;;;8.17;4.37;;;8.60;62.00;;;;;;4847457;29;20847;-81
2022/03/01 10:43:25;;;;;;;4.10;3.57;;;7.90;62.90;;;;;;4866402;29;20425;-82
2022/03/01 10:46:10;;;;;;;6.53;4.10;;;8.20;62.40;;;;;;4868694;29;20571;-80
2022/03/01 10:49:01;;;;;;;5.40;4.10;;;8.50;63.60;;;;;;4863580;29;20458;-81
2022/03/01 10:52:05;;;;;;;7.13;4.93;;;9.30;60.70;;;;;;4868124;29;20479;-78
2022/03/01 10:54:49;;;;;;;6.77;5.53;;;10.10;59.60;;;;;;4872533;29;20454;-79
2022/03/01 10:57:34;;;;;;;9.13;5.30;;;10.10;58.10;;;;;;4869349;29;20993;-81
2022/03/01 11:00:19;;;;;;;5.10;3.97;;;8.50;59.40;;;;;;4869218;29;20426;-81
2022/03/01 11:03:05;;;;;;;9.20;4.90;;;9.20;61.20;;;;;;4882852;29;20594;-80
2022/03/01 11:05:54;;;;;;;4.80;4.40;;;9.50;61.50;;;;;;4865079;29;20558;-81
2022/03/01 11:08:41;;;;;;;7.50;4.67;;;11.00;58.30;;;;;;4867870;29;20458;-81
2022/03/01 11:11:29;;;;;;;6.60;5.43;;;10.70;57.10;;;;;;4863491;29;20481;-82
2022/03/01 11:14:20;;;;;;;5.37;3.30;;;11.00;56.20;;;;;;4867705;29;20422;-81
2022/03/01 11:17:35;;;;;;;4.07;3.57;;;10.60;55.40;;;;;;4858430;29;20960;-80
2022/03/01 11:20:26;;;;;;;4.40;4.00;;;10.20;55.00;;;;;;4851042;29;20512;-81
2022/03/01 11:23:14;;;;;;;8.93;4.60;;;10.60;55.90;;;;;;4847931;29;20464;-81
2022/03/01 11:26:15;;;;;;;5.10;4.60;;;11.40;56.30;;;;;;4842923;29;20465;-81
2022/03/01 11:29:00;;;;;;;5.50;4.53;;;9.70;55.50;;;;;;4850570;29;20474;-81
2022/03/01 11:32:00;;;;;;;5.30;4.67;;;10.20;56.90;;;;;;4867973;29;20427;-79
2022/03/01 11:34:45;;;;;;;5.07;4.13;;;11.10;55.70;;;;;;4855274;29;20430;-79
2022/03/01 11:37:29;;;;;;;6.23;3.97;;;10.70;53.10;;;;;;4871744;29;20430;-81
2022/03/01 11:40:23;;;;;;;6.37;4.50;;;12.20;53.50;;;;;;4871526;29;20439;-82
2022/03/01 11:43:11;;;;;;;4.27;3.90;;;13.60;52.90;;;;;;4853578;29;20463;-82
2022/03/01 11:45:58;;;;;;;6.73;4.13;;;13.40;52.50;;;;;;4861199;29;20546;-81
2022/03/01 11:48:56;;;;;;;4.47;3.90;;;11.80;51.00;;;;;;4862821;29;20434;-80
2022/03/01 11:51:47;;;;;;;5.77;4.30;;;11.20;51.70;;;;;;4872540;29;20456;-79
2022/03/01 11:54:36;;;;;;;9.20;5.30;;;12.80;51.80;;;;;;4876553;29;20465;-79
2022/03/01 11:57:26;;;;;;;6.43;4.90;;;13.90;51.00;;;;;;4861991;29;20454;-79
2022/03/01 12:00:15;;;;;;;4.67;4.27;;;13.10;50.10;;;;;;4865023;29;20429;-80
2022/03/01 12:03:01;;;;;;;5.45;4.38;;;12.40;48.70;;;;;;4864523;29;20544;-80
2022/03/01 12:05:47;;;;;;;6.53;5.20;;;12.40;49.70;;;;;;4872173;29;20302;-80
2022/03/01 12:08:33;;;;;;;6.93;4.87;;;14.40;50.40;;;;;;4853712;29;20415;-79
2022/03/01 12:11:17;;;;;;;6.37;4.23;;;12.60;48.30;;;;;;4859132;29;20431;-79
2022/03/01 12:14:05;;;;;;;5.77;4.27;;;12.20;48.40;;;;;;4848160;29;20919;-79
2022/03/01 12:16:50;;;;;;;7.80;5.20;;;12.80;48.80;;;;;;4872010;29;20444;-79
2022/03/01 12:19:34;;;;;;;4.93;4.13;;;13.30;48.70;;;;;;4875770;29;20444;-81
2022/03/01 12:22:19;;;;;;;5.23;4.23;;;13.70;47.90;;;;;;4887471;29;20394;-80
2022/03/01 12:25:04;;;;;;;4.93;4.07;;;13.40;47.00;;;;;;4886633;29;20398;-81
2022/03/01 12:27:50;;;;;;;6.17;4.30;;;12.90;47.20;;;;;;4886288;29;20904;-81
2022/03/01 12:30:41;;;;;;;6.17;4.90;;;14.50;48.00;;;;;;4886821;29;20433;-81
2022/03/01 12:33:26;;;;;;;7.80;4.53;;;14.00;46.80;;;;;;4885458;29;20425;-81
2022/03/01 12:36:11;;;;;;;4.13;3.83;;;14.20;45.40;;;;;;4885790;29;20460;-81
2022/03/01 12:38:59;;;;;;;4.90;4.00;;;14.40;45.30;;;;;;4870107;29;20470;-80
2022/03/01 12:41:45;;;;;;;6.77;4.87;;;15.30;46.90;;;;;;4879266;29;20506;-80
2022/03/01 12:44:31;;;;;;;5.03;4.13;;;13.70;44.90;;;;;;4866701;29;20398;-79
2022/03/01 12:47:16;;;;;;;6.37;4.30;;;13.90;45.10;;;;;;4867334;29;20442;-80
2022/03/01 12:50:00;;;;;;;5.60;4.17;;;14.10;44.10;;;;;;4869066;29;20379;-80
2022/03/01 12:52:54;;;;;;;6.00;4.57;;;13.80;45.50;;;;;;4825970;29;20408;-80
2022/03/01 12:55:40;;;;;;;4.20;3.80;;;13.70;43.50;;;;;;4869210;29;20447;-80
2022/03/01 12:58:27;;;;;;;6.07;4.37;;;13.70;44.30;;;;;;4880398;29;20479;-80
2022/03/01 13:01:12;;;;;;;5.80;4.97;;;14.70;44.60;;;;;;4876214;29;20538;-82
2022/03/01 13:03:57;;;;;;;4.77;4.30;;;13.60;43.00;;;;;;4876540;29;20482;-81
2022/03/01 13:06:42;;;;;;;5.63;4.17;;;14.20;44.10;;;;;;4850783;29;20407;-81
2022/03/01 13:09:27;;;;;;;5.00;4.50;;;14.20;43.50;;;;;;4876073;29;20406;-81
2022/03/01 13:12:12;;;;;;;4.27;3.87;;;14.50;43.60;;;;;;4872044;29;20438;-80
2022/03/01 13:14:56;;;;;;;5.10;4.53;;;13.70;43.50;;;;;;4857274;29;20447;-80
2022/03/01 13:17:52;;;;;;;5.10;4.27;;;13.20;45.10;;;;;;4862705;29;20472;-79
2022/03/01 13:20:36;;;;;;;5.03;4.63;;;13.50;45.00;;;;;;4857902;29;20406;-77
2022/03/01 13:23:28;;;;;;;4.37;3.97;;;12.60;43.30;;;;;;4858768;29;20387;-78
2022/03/01 13:26:14;;;;;;;4.97;3.73;;;13.20;43.80;;;;;;4864991;29;20402;-80
2022/03/01 13:29:16;;;;;;;5.27;4.77;;;14.70;43.00;;;;;;4877546;29;20394;-78
2022/03/01 13:32:15;;;;;;;5.87;4.90;;;13.90;42.20;;;;;;4878453;29;20421;-79
2022/03/01 13:35:05;;;;;;;4.60;4.20;;;13.80;42.80;;;;;;4877296;29;20782;-79
2022/03/01 13:37:56;;;;;;;5.43;4.80;;;14.90;44.50;;;;;;4880437;29;21001;-77
2022/03/01 13:40:44;;;;;;;4.80;4.40;;;14.70;42.80;;;;;;4860331;29;20423;-80
2022/03/01 13:43:28;;;;;;;4.73;4.30;;;15.50;42.30;;;;;;4873762;29;20418;-77
2022/03/01 13:46:16;;;;;;;5.28;4.32;;;13.50;41.40;;;;;;4860614;29;20468;-80
2022/03/01 13:49:06;;;;;;;4.63;4.23;;;14.60;43.80;;;;;;4878210;29;20198;-81
2022/03/01 13:51:51;;;;;;;4.53;4.13;;;15.00;43.40;;;;;;4879894;29;20480;-79
2022/03/01 13:54:38;;;;;;;6.90;5.07;;;15.50;42.50;;;;;;4879050;29;20463;-79
2022/03/01 13:57:27;;;;;;;7.40;4.57;;;15.30;42.50;;;;;;4892666;29;20466;-79
2022/03/01 14:00:20;;;;;;;4.70;4.30;;;13.90;43.10;;;;;;4892014;29;20463;-79
2022/03/01 14:03:11;;;;;;;5.07;4.37;;;15.00;43.20;;;;;;4863152;29;20402;-80
2022/03/01 14:05:59;;;;;;;5.10;4.70;;;14.60;42.10;;;;;;4884380;29;20413;-81
2022/03/01 14:08:54;;;;;;;4.47;4.07;;;14.90;42.30;;;;;;4894209;29;20905;-79
2022/03/01 14:11:38;;;;;;;6.63;4.57;;;13.70;42.80;;;;;;4831747;29;20395;-80
2022/03/01 14:14:24;;;;;;;9.13;5.57;;;14.10;43.80;;;;;;4857819;29;20395;-79
2022/03/01 14:17:19;;;;;;;4.17;3.87;;;14.30;42.80;;;;;;4871231;29;20850;-79
2022/03/01 14:20:04;;;;;;;7.17;5.50;;;13.40;42.40;;;;;;4876057;29;20434;-80
2022/03/01 14:22:49;;;;;;;4.93;4.27;;;13.60;42.90;;;;;;4894502;29;20422;-80
2022/03/01 14:25:34;;;;;;;3.60;3.30;;;13.90;42.90;;;;;;4884825;29;20475;-80
2022/03/01 14:28:19;;;;;;;5.80;4.30;;;14.40;42.90;;;;;;4861293;29;20475;-79
2022/03/01 14:31:06;;;;;;;5.50;3.93;;;13.10;42.70;;;;;;4874940;29;20439;-80